Waynesville, GA (31566)

7:19 AM EDT on August 27, 2016 (GMT -0400)
Graham | | Change Station

Elev 108 ft 31.44 °N, 82.03 °W | Updated 10 seconds ago

Heavy Rain
Heavy Rain
66.7 °F
Feels Like 66.7 °F
N
0.0
Wind Variable Wind from SE
Gusts 0.0 mph

Today
High -- | Low -- °F
--% Chance of Precip.
Yesterday
High -- | Low -- °F
Precip. -- in
Pressure 30.04 in
Visibility 5.0 miles
Clouds Scattered Clouds 2900 ft
Mostly Cloudy 3900 ft
Overcast 7000 ft
Dew Point 67 °F
Humidity 99%
Rainfall 0.00 in
Snow Depth Not available.
7:00 AM 7:56 PM
Waning Crescent, 25% visible
METAR KBQK 271055Z AUTO 00000KT 5SM +RA SCT029 BKN039 OVC070 23/23 A3004 RMK AO2
Pressure 30.04 in
Visibility 5.0 miles
Clouds Scattered Clouds 2900 ft
Mostly Cloudy 3900 ft
Overcast 7000 ft
Dew Point 67 °F
Humidity 99%
Rainfall 0.00 in
Snow Depth Not available.
7:00 AM 7:56 PM
Waning Crescent, 25% visible
METAR KBQK 271055Z AUTO 00000KT 5SM +RA SCT029 BKN039 OVC070 23/23 A3004 RMK AO2

10-Day Weather Forecast

Almanac

Astronomy

Aug. 27, 2016 Rise Set
Actual Time
Civil Twilight
Nautical Twilight
Astronomical Twilight
Moon
Length of Visible Light
Length of Day
Tomorrow will be .
, % of the Moon is Illuminated

Today's Extremes

State Highs State Lows

Community

WunderPhotos

Upload Photos

1,935,322 photos uploaded!

WunderBlog® & News

Nearby

Air Quality

  Air Quality AQ Index Pollutant
Not available.

Snow Depth

Station Depth Elevation

Earthquake Activity

City Distance Mag. Time & Date
Minimum magnitude displayed is 2.5.

Coastal Water Temperatures

Place Temperature

Stations

Nearby Weather Stations

Station Location Temp. Windchill Dew Point Humidity Wind Precip. Elev Updated Type
                   

Watches & Warnings

There are currently no watches in effect.